Worst METAR reports worldwide for Flight Simulation

High gusts

Station Wind Gust Vis(SM) Temp/Dew Baro
SCRM 62 73 0.06 -13/-15 29.26
SCRM 111800Z 10062G73KT 0100 SN BLSN VV001 M13/M15 Q0991 NOSIG
CWZZ 39 53 19/14 29.18
CWZZ 111800Z AUTO 27039G53KT ////SM OVC025 19/14 A2918
KCDC 14 39 10 30/-5 30.16
KCDC 111753Z AUTO 23014G39KT 10SM CLR 31/M05 A3016 RMK AO2 PK WND 23039/1750 SLP121 T03061050 10311 20122 58002
PALU 30 37 10 9/6 29.85
PALU 111755Z AUTO 18030G37KT 140V210 10SM BKN100 BKN140 09/06 A2985 RMK AO2 PK WND 19037/1716 SLP109 T00930062 10096 20088 57003
SCNT 26 36 6.21 5/0 29.41
SCNT 111800Z 30026G36KT 260V340 9999 SCT040 OVC100 05/00 Q0996

Station Wind Gust Vis(SM) Temp/Dew Baro
SAWG 22 34 6.21 5/-1 29.32
SAWG 111800Z 25022G34KT 9999 FEW010 SCT200 05/M01 Q0993
KPHP 21 33 10 26/17 29.87
KPHP 111755Z AUTO 12021G33KT 10SM CLR 27/18 A2987 RMK AO2 PK WND 14033/1749 SLP097 60014 T02670178 10267 20172 58018
CYFT 19 32 15 30/15 29.47
CYFT 111800Z 24019G32KT 15SM BKN240 30/15 A2947 RMK CI7 SLP983 DENSITY ALT 2600FT
KSUU 26 31 10 21/12 29.88
KSUU 111758Z AUTO 24026G31KT 10SM CLR 22/13 A2988 RMK AO2 PK WND 23031/25 SLP125 T02150129 10215 20152 51011 $
CWLY 16 31 9 23/8 29.76
CWLY 111800Z AUTO 19016G31KT 9SM CLR 23/08 A2976 RMK SLP076 DENSITY ALT 1900FT
CYTQ 24 31 15 23/14 29.26
CYTQ 111800Z 26024G31KT 15SM FEW040 SCT160 23/14 A2926 RMK SC2AC2 SLP911 DENSITY ALT 1900FT
CYVP 15 31 15 24/14 29.30
CYVP 111800Z 25015G31KT 15SM BKN042 BKN100 24/14 A2930 RMK CU5AC1 SLP923 DENSITY ALT 2000FT
KBCE 22 30 10 25/-3 30.33
KBCE 111753Z AUTO 27022G30KT 10SM CLR 26/M04 A3033 RMK AO2 PK WND 24032/1725 SLP148 T02561039 10256 20050 58001 $
KCPR 17 30 10 31/2 30.00
KCPR 111753Z 22017G30KT 10SM CLR 32/03 A3000 RMK AO2 PK WND 23030/1749 SLP080 T03170028 10317 20111 58010
KPIR 20 30 10 25/15 29.86
KPIR 111753Z AUTO 14020G30KT 10SM CLR 26/16 A2986 RMK AO2 PK WND 13030/1748 LTG DSNT W SLP097 60001 T02560156 10256 20167 58044
CYPL 18 30 9 23/9 29.63
CYPL 111800Z AUTO 28018G30KT 9SM SCT065 BKN080 23/09 A2963 RMK SLP036 DENSITY ALT 2800FT
KLAR 9 30 10 25/-7 30.19
KLAR 111831Z AUTO 13009G30KT 100V170 10SM FEW120 26/M07 A3019 RMK AO2 PK WND 28030/1757 WSHFT 1811 T02561072
KDUB 20 30 10 25/-10 30.14
KDUB 111835Z AUTO 26020G30KT 10SM CLR 25/M10 A3014 RMK AO2
KOZR 9 30 1.25 26/21 29.98
KOZR 111842Z AUTO 20009G30KT 1 1/4SM +TSRA FEW002 BKN019 BKN042 26/21 A2998 RMK AO2 VIS 1/4V1 1/4 DZB10E23RAB23 TSB11 CIG 009V019 SLP152
KBUF 22 29 10 26/18 29.89
KBUF 111754Z 23022G29KT 10SM SCT022 BKN150 BKN220 27/19 A2989 RMK AO2 PK WND 23031/1712 SLP117 T02670189 10278 20256 52005
KDLH 17 29 10 27/13 29.90
KDLH 111755Z 27017G29KT 10SM FEW090 28/13 A2990 RMK AO2 PK WND 26031/1705 SLP121 T02780133 10278 20167 58001
SAWE 19 29 6.21 5/-1 29.17
SAWE 111800Z 27019G29KT 9999 SCT012 05/M01 Q0988
CYCA 15 28 9 31/15 29.61
CYCA 111800Z AUTO 21015G28KT 9SM CLR 31/15 A2961 RMK SLP030 DENSITY ALT 2100FT
CYYR 18 28 15 33/15 29.58
CYYR 111800Z 22018G28KT 15SM FEW070 FEW240 BKN300 33/15 A2958 RMK CU2CC1CI6 SLP016
KXWA 14 27 10 28/6 29.88
KXWA 111751Z AUTO 13014G27KT 10SM CLR 29/06 A2988 RMK AO2 PK WND 14028/1735 SLP953 T02890061 10289 20133 56009
KCMX 18 27 10 27/7 29.85
KCMX 111753Z AUTO 25018G27KT 10SM CLR 27/08 A2985 RMK AO2 PK WND 25029/1723 SLP102 T02720078 10272 20178 58010
BIVM 13 27 0.25 11/11 29.94
BIVM 111800Z 13013G27KT 0400 RA FG VV001 11/11 Q1014
CYMH 16 27 9 27/16 29.77
CYMH 111800Z AUTO 22016G27KT 9SM CLR 27/16 A2977 RMK SLP084 DENSITY ALT 1500FT
SLVM 15 27 6.21 23/8 29.97
SLVM 111800Z 18015G27KT 9999 FEW070 23/08 Q1015
LFLW 16 27 6.21 25/13 29.97
LFLW 111830Z AUTO 16016G27KT 130V200 9999 TS ///CB 25/13 Q1015
KOZA 18 27 10 34/15 30.03
KOZA 111835Z AUTO 19018G27KT 10SM CLR 34/15 A3003 RMK AO2
KDRT 13 26 10 35/18 29.95
KDRT 111753Z AUTO 13013G26KT 10SM CLR 36/19 A2995 RMK AO2 PK WND 14029/1717 SLP122 T03560189 10356 20267 58009
CYDP 14 26 15 26/15 29.36
CYDP 111800Z 26014G26KT 15SM FEW035 SCT040 BKN052 BKN110 BKN250 26/15 A2936 RMK CU1SC3SC2AC2CS1 CU TR CS TR G34 PAST HR PRESRR SLP943 DENSITY ALT 2000FT
EBBR 15 26 6.21 25/19 29.91
EBBR 111820Z 13015G26KT 090V150 9999 VCTS BKN050CB 25/19 Q1013 RESHRA TEMPO 3500 TSRA
KFYM 14 26 0.25 23/-31 30.11
KFYM 111835Z AUTO 02014G26KT M1/4SM HZ OVC002 23/M31 A3011 RMK A01
KMYP 13 26 10 16/-8 30.74
KMYP 111835Z AUTO 28013G26KT 10SM SCT090 16/M08 A3074 RMK AO2
KDLF 15 26 10 36/18 29.94
KDLF 111837Z AUTO 15015G26KT 10SM CLR 36/18 A2994 RMK AO2 WSHFT 32 SLP123 CHINO RWY31 $
KHKA 14 26 10 30/22 29.98
KHKA 111840Z AUTO 32014G26KT 10SM SCT045 31/22 A2998 RMK AO2 PK WND 32026/1837 LTG DSNT ALQDS T03060222
KCII 8 25 10 27/4 29.87
KCII 111830Z AUTO 30008G25KT 10SM 27/04 A2987 RMK A01 Choteau
KLUV 15 25 10 36/14 30.01
KLUV 111835Z AUTO 18015G25KT 10SM BKN110 36/14 A3001 RMK AO2
KFYV 15 25 10 23/20 30.05
KFYV 111839Z 24015G25KT 10SM VCTS FEW024 BKN033 BKN040 23/21 A3005 RMK AO2 LTG DSNT ALQDS P0001 T02330206
KMLF 17 25 10 33/-5 30.08
KMLF 111841Z AUTO 21017G25KT 10SM CLR 33/M06 A3008 RMK AO2 PK WND 21034/1819 WSHFT 1827 T03331056
KBHK 14 24 10 31/5 29.88
KBHK 111751Z AUTO 14014G24KT 10SM CLR 32/06 A2988 RMK AO2 SLP093 T03170056 10317 20111 58009
KBDE 14 24 / 29.88
KBDE 111753Z AUTO 29014G24KT CLR A2988 RMK AO2 PK WND 26027/1716 SLPNO 6//// 10244 20139 53016 PWINO FZRANO PNO $
KDKK 14 24 10 27/18 29.93
KDKK 111753Z AUTO 24014G24KT 10SM FEW025 SCT034 27/19 A2993 RMK AO2 PK WND 26026/1727 SLP129 T02720189 10278 20250 51008 $
KDLS 18 24 10 27/2 29.86
KDLS 111753Z AUTO 30018G24KT 10SM CLR 27/03 A2986 RMK AO2 SLP108 T02720028 10278 20150 58010
KLIC 14 24 10 32/6 30.08
KLIC 111755Z AUTO 18014G24KT 10SM CLR 32/06 A3008 RMK AO2 SLP098 T03220061 10328 20122 58009
KGVQ 13 24 10 26/20 29.89
KGVQ 111756Z AUTO 26013G24KT 10SM FEW028 27/20 A2989 RMK AO2 PK WND 24028/1659 SLP111 T02670200 10272 20244 53001
CYAT 16 24 9 27/12 29.42
CYAT 111800Z AUTO 24016G24KT 190V260 9SM FEW070 SCT081 SCT120 27/12 A2942 RMK SLP964 DENSITY ALT 1900FT
CYGL 16 24 15 23/12 29.51
CYGL 111800Z 21016G24KT 15SM FEW025 FEW120 SCT240 23/12 A2951 RMK CU1AC1CI2 SLP998 DENSITY ALT 2300FT